sensor_id;sensor_type;location;lat;lon;timestamp;temperature;humidity
17565;DHT22;62994;52.126;5.596;2023-06-22T00:02:18;23.60;99.90
17565;DHT22;62994;52.126;5.596;2023-06-22T00:04:46;23.50;99.90
17565;DHT22;62994;52.126;5.596;2023-06-22T00:07:13;23.40;99.90
17565;DHT22;62994;52.126;5.596;2023-06-22T00:09:40;23.20;99.90
17565;DHT22;62994;52.126;5.596;2023-06-22T00:12:08;23.10;99.90
17565;DHT22;62994;52.126;5.596;2023-06-22T00:14:35;23.10;99.90
17565;DHT22;62994;52.126;5.596;2023-06-22T00:17:02;23.10;99.90
17565;DHT22;62994;52.126;5.596;2023-06-22T00:19:29;23.00;99.90
17565;DHT22;62994;52.126;5.596;2023-06-22T00:21:57;22.90;99.90
17565;DHT22;62994;52.126;5.596;2023-06-22T00:24:25;23.00;99.90
17565;DHT22;62994;52.126;5.596;2023-06-22T00:26:52;22.90;99.90
17565;DHT22;62994;52.126;5.596;2023-06-22T00:29:19;22.90;99.90
17565;DHT22;62994;52.126;5.596;2023-06-22T00:31:46;22.90;99.90
17565;DHT22;62994;52.126;5.596;2023-06-22T00:34:13;22.90;99.90
17565;DHT22;62994;52.126;5.596;2023-06-22T00:36:41;22.80;99.90
17565;DHT22;62994;52.126;5.596;2023-06-22T00:39:09;22.70;99.90
17565;DHT22;62994;52.126;5.596;2023-06-22T00:41:36;22.70;99.90
17565;DHT22;62994;52.126;5.596;2023-06-22T00:44:03;22.70;99.90
17565;DHT22;62994;52.126;5.596;2023-06-22T00:46:30;22.70;99.90
17565;DHT22;62994;52.126;5.596;2023-06-22T00:48:58;22.60;99.90
17565;DHT22;62994;52.126;5.596;2023-06-22T00:51:25;22.60;99.90
17565;DHT22;62994;52.126;5.596;2023-06-22T00:53:52;22.60;99.90
17565;DHT22;62994;52.126;5.596;2023-06-22T00:56:22;22.60;99.90
17565;DHT22;62994;52.126;5.596;2023-06-22T00:58:50;22.60;99.90
17565;DHT22;62994;52.126;5.596;2023-06-22T01:01:19;22.60;99.90
17565;DHT22;62994;52.126;5.596;2023-06-22T01:03:49;22.60;99.90
17565;DHT22;62994;52.126;5.596;2023-06-22T01:06:21;22.50;99.90
17565;DHT22;62994;52.126;5.596;2023-06-22T01:09:02;22.50;99.90
17565;DHT22;62994;52.126;5.596;2023-06-22T01:11:37;22.40;99.90
17565;DHT22;62994;52.126;5.596;2023-06-22T01:14:14;22.40;99.90
17565;DHT22;62994;52.126;5.596;2023-06-22T01:16:43;22.30;99.90
17565;DHT22;62994;52.126;5.596;2023-06-22T01:19:25;22.20;99.90
17565;DHT22;62994;52.126;5.596;2023-06-22T01:22:23;22.10;99.90
17565;DHT22;62994;52.126;5.596;2023-06-22T01:24:57;22.10;99.90
17565;DHT22;62994;52.126;5.596;2023-06-22T01:27:40;22.00;99.90
17565;DHT22;62994;52.126;5.596;2023-06-22T01:30:14;21.90;99.90
17565;DHT22;62994;52.126;5.596;2023-06-22T01:32:43;21.80;99.90
17565;DHT22;62994;52.126;5.596;2023-06-22T01:35:10;21.80;99.90
17565;DHT22;62994;52.126;5.596;2023-06-22T01:37:38;21.70;99.90
17565;DHT22;62994;52.126;5.596;2023-06-22T01:40:06;21.60;99.90
17565;DHT22;62994;52.126;5.596;2023-06-22T01:42:35;21.60;99.90
17565;DHT22;62994;52.126;5.596;2023-06-22T01:45:03;21.50;99.90
17565;DHT22;62994;52.126;5.596;2023-06-22T01:47:32;21.50;99.90
17565;DHT22;62994;52.126;5.596;2023-06-22T01:50:00;21.50;99.90
17565;DHT22;62994;52.126;5.596;2023-06-22T01:52:28;21.50;99.90
17565;DHT22;62994;52.126;5.596;2023-06-22T01:54:54;21.40;99.90
17565;DHT22;62994;52.126;5.596;2023-06-22T01:57:23;21.40;99.90
17565;DHT22;62994;52.126;5.596;2023-06-22T01:59:57;21.40;99.90
17565;DHT22;62994;52.126;5.596;2023-06-22T02:02:28;21.40;99.90
17565;DHT22;62994;52.126;5.596;2023-06-22T02:05:01;21.30;99.90
17565;DHT22;62994;52.126;5.596;2023-06-22T02:07:32;21.30;99.90
17565;DHT22;62994;52.126;5.596;2023-06-22T02:10:00;21.30;99.90
17565;DHT22;62994;52.126;5.596;2023-06-22T02:12:28;21.30;99.90
17565;DHT22;62994;52.126;5.596;2023-06-22T02:14:56;21.20;99.90
17565;DHT22;62994;52.126;5.596;2023-06-22T02:17:24;21.20;99.90
17565;DHT22;62994;52.126;5.596;2023-06-22T02:19:54;21.10;99.90
17565;DHT22;62994;52.126;5.596;2023-06-22T02:22:22;21.20;99.90
17565;DHT22;62994;52.126;5.596;2023-06-22T02:24:50;21.10;99.90
17565;DHT22;62994;52.126;5.596;2023-06-22T02:27:17;21.10;99.90
17565;DHT22;62994;52.126;5.596;2023-06-22T02:29:44;21.00;99.90
17565;DHT22;62994;52.126;5.596;2023-06-22T02:32:11;21.00;99.90
17565;DHT22;62994;52.126;5.596;2023-06-22T02:34:38;20.90;99.90
17565;DHT22;62994;52.126;5.596;2023-06-22T02:37:05;20.90;99.90
17565;DHT22;62994;52.126;5.596;2023-06-22T02:39:33;20.90;99.90
17565;DHT22;62994;52.126;5.596;2023-06-22T02:42:01;20.90;99.90
17565;DHT22;62994;52.126;5.596;2023-06-22T02:44:28;20.90;99.90
17565;DHT22;62994;52.126;5.596;2023-06-22T02:46:55;20.90;99.90
17565;DHT22;62994;52.126;5.596;2023-06-22T02:49:22;20.90;99.90
17565;DHT22;62994;52.126;5.596;2023-06-22T02:51:50;20.90;99.90
17565;DHT22;62994;52.126;5.596;2023-06-22T02:54:17;20.80;99.90
17565;DHT22;62994;52.126;5.596;2023-06-22T02:56:45;20.80;99.90
17565;DHT22;62994;52.126;5.596;2023-06-22T02:59:13;20.80;99.90
17565;DHT22;62994;52.126;5.596;2023-06-22T03:01:40;20.80;99.90
17565;DHT22;62994;52.126;5.596;2023-06-22T03:04:07;20.80;99.90
17565;DHT22;62994;52.126;5.596;2023-06-22T03:06:35;20.80;99.90
17565;DHT22;62994;52.126;5.596;2023-06-22T03:09:03;20.80;99.90
17565;DHT22;62994;52.126;5.596;2023-06-22T03:11:31;20.80;99.90
17565;DHT22;62994;52.126;5.596;2023-06-22T03:14:00;20.80;99.90
17565;DHT22;62994;52.126;5.596;2023-06-22T03:16:27;20.70;99.90
17565;DHT22;62994;52.126;5.596;2023-06-22T03:18:54;20.70;99.90
17565;DHT22;62994;52.126;5.596;2023-06-22T03:26:23;20.60;99.90
17565;DHT22;62994;52.126;5.596;2023-06-22T03:28:57;20.60;99.90
17565;DHT22;62994;52.126;5.596;2023-06-22T03:31:26;20.50;99.90
17565;DHT22;62994;52.126;5.596;2023-06-22T03:33:55;20.50;99.90
17565;DHT22;62994;52.126;5.596;2023-06-22T03:36:23;20.50;99.90
17565;DHT22;62994;52.126;5.596;2023-06-22T03:38:50;20.50;99.90
17565;DHT22;62994;52.126;5.596;2023-06-22T03:41:17;20.50;99.90
17565;DHT22;62994;52.126;5.596;2023-06-22T03:43:44;20.60;99.90
17565;DHT22;62994;52.126;5.596;2023-06-22T03:46:12;20.50;99.90
17565;DHT22;62994;52.126;5.596;2023-06-22T03:48:41;20.50;99.90
17565;DHT22;62994;52.126;5.596;2023-06-22T03:51:08;20.50;99.90
17565;DHT22;62994;52.126;5.596;2023-06-22T03:53:35;20.50;99.90
17565;DHT22;62994;52.126;5.596;2023-06-22T03:56:02;20.40;99.90
17565;DHT22;62994;52.126;5.596;2023-06-22T03:58:30;20.40;99.90
17565;DHT22;62994;52.126;5.596;2023-06-22T04:00:59;20.40;99.90
17565;DHT22;62994;52.126;5.596;2023-06-22T04:03:26;20.40;99.90
17565;DHT22;62994;52.126;5.596;2023-06-22T04:05:55;20.30;99.90
17565;DHT22;62994;52.126;5.596;2023-06-22T04:08:22;20.30;99.90
17565;DHT22;62994;52.126;5.596;2023-06-22T04:10:49;20.30;99.90
17565;DHT22;62994;52.126;5.596;2023-06-22T04:13:16;20.30;99.90
17565;DHT22;62994;52.126;5.596;2023-06-22T04:15:43;20.30;99.90
17565;DHT22;62994;52.126;5.596;2023-06-22T04:18:11;20.30;99.90
17565;DHT22;62994;52.126;5.596;2023-06-22T04:20:39;20.20;99.90
17565;DHT22;62994;52.126;5.596;2023-06-22T04:23:08;20.30;99.90
17565;DHT22;62994;52.126;5.596;2023-06-22T04:25:35;20.20;99.90
17565;DHT22;62994;52.126;5.596;2023-06-22T04:28:02;20.20;99.90
17565;DHT22;62994;52.126;5.596;2023-06-22T04:30:30;20.10;99.90
17565;DHT22;62994;52.126;5.596;2023-06-22T04:32:58;20.00;99.90
17565;DHT22;62994;52.126;5.596;2023-06-22T04:35:25;20.10;99.90
17565;DHT22;62994;52.126;5.596;2023-06-22T04:37:55;20.00;99.90
17565;DHT22;62994;52.126;5.596;2023-06-22T04:40:24;20.00;99.90
17565;DHT22;62994;52.126;5.596;2023-06-22T04:42:51;19.90;99.90
17565;DHT22;62994;52.126;5.596;2023-06-22T04:45:21;19.90;99.90
17565;DHT22;62994;52.126;5.596;2023-06-22T04:47:49;19.90;99.90
17565;DHT22;62994;52.126;5.596;2023-06-22T04:50:17;19.90;99.90
17565;DHT22;62994;52.126;5.596;2023-06-22T04:52:47;19.90;99.90
17565;DHT22;62994;52.126;5.596;2023-06-22T04:55:14;19.80;99.90
17565;DHT22;62994;52.126;5.596;2023-06-22T04:57:45;19.80;99.90
17565;DHT22;62994;52.126;5.596;2023-06-22T05:00:15;19.80;99.90
17565;DHT22;62994;52.126;5.596;2023-06-22T05:02:44;19.90;99.90
17565;DHT22;62994;52.126;5.596;2023-06-22T05:05:12;19.90;99.90
17565;DHT22;62994;52.126;5.596;2023-06-22T05:07:43;19.90;99.90
17565;DHT22;62994;52.126;5.596;2023-06-22T05:10:11;19.90;99.90
17565;DHT22;62994;52.126;5.596;2023-06-22T05:12:39;19.90;99.90
17565;DHT22;62994;52.126;5.596;2023-06-22T05:15:09;19.90;99.90
17565;DHT22;62994;52.126;5.596;2023-06-22T05:17:37;19.90;99.90
17565;DHT22;62994;52.126;5.596;2023-06-22T05:20:09;19.90;99.90
17565;DHT22;62994;52.126;5.596;2023-06-22T05:22:37;20.00;99.90
17565;DHT22;62994;52.126;5.596;2023-06-22T05:25:07;20.00;99.90
17565;DHT22;62994;52.126;5.596;2023-06-22T05:27:35;20.00;99.90
17565;DHT22;62994;52.126;5.596;2023-06-22T05:30:06;20.10;99.90
17565;DHT22;62994;52.126;5.596;2023-06-22T05:32:36;20.00;99.90
17565;DHT22;62994;52.126;5.596;2023-06-22T05:35:04;20.10;99.90
17565;DHT22;62994;52.126;5.596;2023-06-22T05:37:31;20.20;99.90
17565;DHT22;62994;52.126;5.596;2023-06-22T05:39:58;20.30;99.90
17565;DHT22;62994;52.126;5.596;2023-06-22T05:42:25;20.40;99.90
17565;DHT22;62994;52.126;5.596;2023-06-22T05:44:53;20.40;99.90
17565;DHT22;62994;52.126;5.596;2023-06-22T05:47:21;20.40;99.90
17565;DHT22;62994;52.126;5.596;2023-06-22T05:49:50;20.50;99.90
17565;DHT22;62994;52.126;5.596;2023-06-22T05:52:17;20.50;99.90
17565;DHT22;62994;52.126;5.596;2023-06-22T05:54:44;20.60;99.90
17565;DHT22;62994;52.126;5.596;2023-06-22T05:57:11;20.60;99.90
17565;DHT22;62994;52.126;5.596;2023-06-22T05:59:38;20.70;99.90
17565;DHT22;62994;52.126;5.596;2023-06-22T06:02:05;20.70;99.90
17565;DHT22;62994;52.126;5.596;2023-06-22T06:04:32;20.70;99.90
17565;DHT22;62994;52.126;5.596;2023-06-22T06:07:01;20.70;99.90
17565;DHT22;62994;52.126;5.596;2023-06-22T06:09:29;20.70;99.90
17565;DHT22;62994;52.126;5.596;2023-06-22T06:11:56;20.80;99.90
17565;DHT22;62994;52.126;5.596;2023-06-22T06:14:23;20.90;99.90
17565;DHT22;62994;52.126;5.596;2023-06-22T06:16:50;20.90;99.90
17565;DHT22;62994;52.126;5.596;2023-06-22T06:19:17;21.00;99.90
17565;DHT22;62994;52.126;5.596;2023-06-22T06:21:44;21.00;99.90
17565;DHT22;62994;52.126;5.596;2023-06-22T06:24:13;21.00;99.90
17565;DHT22;62994;52.126;5.596;2023-06-22T06:26:40;21.00;99.90
17565;DHT22;62994;52.126;5.596;2023-06-22T06:29:08;21.10;99.90
17565;DHT22;62994;52.126;5.596;2023-06-22T06:31:35;21.10;99.90
17565;DHT22;62994;52.126;5.596;2023-06-22T06:34:03;21.20;99.90
17565;DHT22;62994;52.126;5.596;2023-06-22T06:36:30;21.30;99.90
17565;DHT22;62994;52.126;5.596;2023-06-22T06:38:57;21.30;99.90
17565;DHT22;62994;52.126;5.596;2023-06-22T06:41:25;21.40;99.90
17565;DHT22;62994;52.126;5.596;2023-06-22T06:43:52;21.50;99.90
17565;DHT22;62994;52.126;5.596;2023-06-22T06:46:24;21.60;99.90
17565;DHT22;62994;52.126;5.596;2023-06-22T06:48:52;21.70;99.90
17565;DHT22;62994;52.126;5.596;2023-06-22T06:51:19;21.70;99.90
17565;DHT22;62994;52.126;5.596;2023-06-22T06:53:47;21.90;99.90
17565;DHT22;62994;52.126;5.596;2023-06-22T06:56:14;21.90;99.90
17565;DHT22;62994;52.126;5.596;2023-06-22T06:58:42;22.00;99.90
17565;DHT22;62994;52.126;5.596;2023-06-22T07:01:11;22.20;99.90
17565;DHT22;62994;52.126;5.596;2023-06-22T07:03:38;22.30;99.90
17565;DHT22;62994;52.126;5.596;2023-06-22T07:06:05;22.40;99.90
17565;DHT22;62994;52.126;5.596;2023-06-22T07:08:32;22.50;99.90
17565;DHT22;62994;52.126;5.596;2023-06-22T07:11:00;22.60;99.90
17565;DHT22;62994;52.126;5.596;2023-06-22T07:13:28;22.70;99.90
17565;DHT22;62994;52.126;5.596;2023-06-22T07:15:56;22.80;99.90
17565;DHT22;62994;52.126;5.596;2023-06-22T07:18:23;22.90;99.90
17565;DHT22;62994;52.126;5.596;2023-06-22T07:20:52;23.00;99.90
17565;DHT22;62994;52.126;5.596;2023-06-22T07:23:19;23.00;99.90
17565;DHT22;62994;52.126;5.596;2023-06-22T07:25:46;23.10;99.90
17565;DHT22;62994;52.126;5.596;2023-06-22T07:28:14;23.20;99.90
17565;DHT22;62994;52.126;5.596;2023-06-22T07:30:42;23.40;99.90
17565;DHT22;62994;52.126;5.596;2023-06-22T07:33:11;23.40;99.90
17565;DHT22;62994;52.126;5.596;2023-06-22T07:35:39;23.50;99.90
17565;DHT22;62994;52.126;5.596;2023-06-22T07:38:06;23.60;99.90
17565;DHT22;62994;52.126;5.596;2023-06-22T07:40:35;23.70;99.90
17565;DHT22;62994;52.126;5.596;2023-06-22T07:43:04;23.80;99.90
17565;DHT22;62994;52.126;5.596;2023-06-22T07:45:32;23.90;99.90
17565;DHT22;62994;52.126;5.596;2023-06-22T07:48:01;24.00;99.90
17565;DHT22;62994;52.126;5.596;2023-06-22T07:50:30;24.10;99.90
17565;DHT22;62994;52.126;5.596;2023-06-22T07:52:58;24.10;99.90
17565;DHT22;62994;52.126;5.596;2023-06-22T07:55:26;24.20;99.90
17565;DHT22;62994;52.126;5.596;2023-06-22T07:57:53;24.30;99.90
17565;DHT22;62994;52.126;5.596;2023-06-22T08:00:20;24.30;99.90
17565;DHT22;62994;52.126;5.596;2023-06-22T08:02:47;24.40;99.90
17565;DHT22;62994;52.126;5.596;2023-06-22T08:05:15;24.50;99.90
17565;DHT22;62994;52.126;5.596;2023-06-22T08:07:44;24.50;99.90
17565;DHT22;62994;52.126;5.596;2023-06-22T08:10:12;24.60;99.90
17565;DHT22;62994;52.126;5.596;2023-06-22T08:12:39;24.70;99.90
17565;DHT22;62994;52.126;5.596;2023-06-22T08:15:08;24.80;99.90
17565;DHT22;62994;52.126;5.596;2023-06-22T08:17:36;24.80;99.90
17565;DHT22;62994;52.126;5.596;2023-06-22T08:20:04;24.90;99.90
17565;DHT22;62994;52.126;5.596;2023-06-22T08:22:41;25.00;99.90
17565;DHT22;62994;52.126;5.596;2023-06-22T08:25:11;25.10;99.90
17565;DHT22;62994;52.126;5.596;2023-06-22T08:27:38;25.10;99.90
17565;DHT22;62994;52.126;5.596;2023-06-22T08:30:07;25.20;99.90
17565;DHT22;62994;52.126;5.596;2023-06-22T08:32:36;25.30;99.90
17565;DHT22;62994;52.126;5.596;2023-06-22T08:35:05;25.50;99.90
17565;DHT22;62994;52.126;5.596;2023-06-22T08:37:34;25.60;99.90
17565;DHT22;62994;52.126;5.596;2023-06-22T08:40:03;25.80;99.90
17565;DHT22;62994;52.126;5.596;2023-06-22T08:42:33;25.90;99.90
17565;DHT22;62994;52.126;5.596;2023-06-22T08:45:00;25.90;99.90
17565;DHT22;62994;52.126;5.596;2023-06-22T08:47:28;25.90;99.90
17565;DHT22;62994;52.126;5.596;2023-06-22T08:49:56;25.90;99.90
17565;DHT22;62994;52.126;5.596;2023-06-22T08:52:24;26.00;99.90
17565;DHT22;62994;52.126;5.596;2023-06-22T08:54:51;26.10;99.90
17565;DHT22;62994;52.126;5.596;2023-06-22T08:57:18;26.10;99.90
17565;DHT22;62994;52.126;5.596;2023-06-22T08:59:49;26.20;99.90
17565;DHT22;62994;52.126;5.596;2023-06-22T09:02:20;26.20;99.90
17565;DHT22;62994;52.126;5.596;2023-06-22T09:04:47;26.30;99.90
17565;DHT22;62994;52.126;5.596;2023-06-22T09:07:21;26.40;99.90
17565;DHT22;62994;52.126;5.596;2023-06-22T09:09:50;26.50;99.90
17565;DHT22;62994;52.126;5.596;2023-06-22T09:12:19;26.40;99.90
17565;DHT22;62994;52.126;5.596;2023-06-22T09:14:51;26.50;99.90
17565;DHT22;62994;52.126;5.596;2023-06-22T09:17:19;26.60;99.90
17565;DHT22;62994;52.126;5.596;2023-06-22T09:19:46;26.70;99.90
17565;DHT22;62994;52.126;5.596;2023-06-22T09:22:14;26.70;99.90
17565;DHT22;62994;52.126;5.596;2023-06-22T09:24:41;26.80;99.90
17565;DHT22;62994;52.126;5.596;2023-06-22T09:27:09;27.00;99.90
17565;DHT22;62994;52.126;5.596;2023-06-22T09:29:36;27.00;99.90
17565;DHT22;62994;52.126;5.596;2023-06-22T09:32:06;27.10;99.90
17565;DHT22;62994;52.126;5.596;2023-06-22T09:34:34;27.20;99.90
17565;DHT22;62994;52.126;5.596;2023-06-22T09:37:02;27.30;99.90
17565;DHT22;62994;52.126;5.596;2023-06-22T09:39:30;27.40;99.90
17565;DHT22;62994;52.126;5.596;2023-06-22T09:41:58;27.50;99.90
17565;DHT22;62994;52.126;5.596;2023-06-22T09:44:26;27.50;99.90
17565;DHT22;62994;52.126;5.596;2023-06-22T09:46:53;27.50;99.90
17565;DHT22;62994;52.126;5.596;2023-06-22T09:49:23;27.70;99.90
17565;DHT22;62994;52.126;5.596;2023-06-22T09:51:51;27.70;99.90
17565;DHT22;62994;52.126;5.596;2023-06-22T09:54:19;27.80;99.90
17565;DHT22;62994;52.126;5.596;2023-06-22T09:56:46;27.80;99.90
17565;DHT22;62994;52.126;5.596;2023-06-22T09:59:15;27.80;99.90
17565;DHT22;62994;52.126;5.596;2023-06-22T10:01:42;27.90;99.90
17565;DHT22;62994;52.126;5.596;2023-06-22T10:04:10;27.90;99.90
17565;DHT22;62994;52.126;5.596;2023-06-22T10:06:39;27.80;99.90
17565;DHT22;62994;52.126;5.596;2023-06-22T10:09:07;27.80;99.90
17565;DHT22;62994;52.126;5.596;2023-06-22T10:11:34;27.80;99.90
17565;DHT22;62994;52.126;5.596;2023-06-22T10:14:02;27.80;99.90
17565;DHT22;62994;52.126;5.596;2023-06-22T10:16:33;27.60;99.90
17565;DHT22;62994;52.126;5.596;2023-06-22T10:19:01;27.70;99.90
17565;DHT22;62994;52.126;5.596;2023-06-22T10:21:29;27.70;99.90
17565;DHT22;62994;52.126;5.596;2023-06-22T10:23:59;27.80;99.90
17565;DHT22;62994;52.126;5.596;2023-06-22T10:26:31;27.80;99.90
17565;DHT22;62994;52.126;5.596;2023-06-22T10:29:01;27.90;99.90
17565;DHT22;62994;52.126;5.596;2023-06-22T10:31:29;27.90;99.90
17565;DHT22;62994;52.126;5.596;2023-06-22T10:33:57;27.90;99.90
17565;DHT22;62994;52.126;5.596;2023-06-22T10:36:24;27.90;99.90
17565;DHT22;62994;52.126;5.596;2023-06-22T10:38:52;27.80;99.90
17565;DHT22;62994;52.126;5.596;2023-06-22T10:41:24;27.80;99.90
17565;DHT22;62994;52.126;5.596;2023-06-22T10:43:52;27.80;99.90
17565;DHT22;62994;52.126;5.596;2023-06-22T10:46:19;27.90;99.90
17565;DHT22;62994;52.126;5.596;2023-06-22T10:48:47;27.90;99.90
17565;DHT22;62994;52.126;5.596;2023-06-22T10:51:14;27.90;99.90
17565;DHT22;62994;52.126;5.596;2023-06-22T10:53:41;27.90;99.90
17565;DHT22;62994;52.126;5.596;2023-06-22T10:56:09;27.80;99.90
17565;DHT22;62994;52.126;5.596;2023-06-22T10:58:38;27.70;99.90
17565;DHT22;62994;52.126;5.596;2023-06-22T11:01:05;27.80;99.90
17565;DHT22;62994;52.126;5.596;2023-06-22T11:03:33;27.70;99.90
17565;DHT22;62994;52.126;5.596;2023-06-22T11:06:00;27.80;99.90
17565;DHT22;62994;52.126;5.596;2023-06-22T11:08:28;27.70;99.90
17565;DHT22;62994;52.126;5.596;2023-06-22T11:10:55;27.70;99.90
17565;DHT22;62994;52.126;5.596;2023-06-22T11:13:22;27.70;99.90
17565;DHT22;62994;52.126;5.596;2023-06-22T11:15:52;27.70;99.90
17565;DHT22;62994;52.126;5.596;2023-06-22T11:18:20;27.60;99.90
17565;DHT22;62994;52.126;5.596;2023-06-22T11:20:49;27.60;99.90
17565;DHT22;62994;52.126;5.596;2023-06-22T11:23:16;27.50;99.90
17565;DHT22;62994;52.126;5.596;2023-06-22T11:25:43;27.50;99.90
17565;DHT22;62994;52.126;5.596;2023-06-22T11:28:12;27.50;99.90
17565;DHT22;62994;52.126;5.596;2023-06-22T11:30:39;27.40;99.90
17565;DHT22;62994;52.126;5.596;2023-06-22T11:33:08;27.40;99.90
17565;DHT22;62994;52.126;5.596;2023-06-22T11:35:35;27.30;99.90
17565;DHT22;62994;52.126;5.596;2023-06-22T11:38:02;27.40;99.90
17565;DHT22;62994;52.126;5.596;2023-06-22T11:40:31;27.30;99.90
17565;DHT22;62994;52.126;5.596;2023-06-22T11:42:58;27.30;99.90
17565;DHT22;62994;52.126;5.596;2023-06-22T11:45:27;27.30;99.90
17565;DHT22;62994;52.126;5.596;2023-06-22T11:47:55;27.30;99.90
17565;DHT22;62994;52.126;5.596;2023-06-22T11:50:24;27.30;99.90
17565;DHT22;62994;52.126;5.596;2023-06-22T11:52:51;27.30;99.90
17565;DHT22;62994;52.126;5.596;2023-06-22T11:55:18;27.20;99.90
17565;DHT22;62994;52.126;5.596;2023-06-22T11:57:54;27.20;99.90
17565;DHT22;62994;52.126;5.596;2023-06-22T12:00:24;27.20;99.90
17565;DHT22;62994;52.126;5.596;2023-06-22T12:02:51;27.10;99.90
17565;DHT22;62994;52.126;5.596;2023-06-22T12:05:19;27.00;99.90
17565;DHT22;62994;52.126;5.596;2023-06-22T12:07:48;27.00;99.90
17565;DHT22;62994;52.126;5.596;2023-06-22T12:10:16;26.90;99.90
17565;DHT22;62994;52.126;5.596;2023-06-22T12:12:43;26.80;99.90
17565;DHT22;62994;52.126;5.596;2023-06-22T12:15:10;26.80;99.90
17565;DHT22;62994;52.126;5.596;2023-06-22T12:17:38;26.80;99.90
17565;DHT22;62994;52.126;5.596;2023-06-22T12:20:06;26.60;99.90
17565;DHT22;62994;52.126;5.596;2023-06-22T12:22:34;26.50;99.90
17565;DHT22;62994;52.126;5.596;2023-06-22T12:25:05;26.40;99.90
17565;DHT22;62994;52.126;5.596;2023-06-22T12:27:37;26.40;99.90
17565;DHT22;62994;52.126;5.596;2023-06-22T12:30:06;26.40;99.90
17565;DHT22;62994;52.126;5.596;2023-06-22T12:32:35;26.50;99.90
17565;DHT22;62994;52.126;5.596;2023-06-22T12:35:03;26.50;99.90
17565;DHT22;62994;52.126;5.596;2023-06-22T12:37:30;26.60;99.90
17565;DHT22;62994;52.126;5.596;2023-06-22T12:39:59;26.60;99.90
17565;DHT22;62994;52.126;5.596;2023-06-22T12:42:28;26.70;99.90
17565;DHT22;62994;52.126;5.596;2023-06-22T12:44:55;26.70;99.90
17565;DHT22;62994;52.126;5.596;2023-06-22T12:47:23;26.80;99.90
17565;DHT22;62994;52.126;5.596;2023-06-22T12:49:50;26.80;99.90
17565;DHT22;62994;52.126;5.596;2023-06-22T12:52:17;26.80;99.90
17565;DHT22;62994;52.126;5.596;2023-06-22T12:54:44;26.90;99.90
17565;DHT22;62994;52.126;5.596;2023-06-22T12:57:11;26.80;99.90
17565;DHT22;62994;52.126;5.596;2023-06-22T12:59:41;26.90;99.90
17565;DHT22;62994;52.126;5.596;2023-06-22T13:02:08;26.80;99.90
17565;DHT22;62994;52.126;5.596;2023-06-22T13:04:36;26.80;99.90
17565;DHT22;62994;52.126;5.596;2023-06-22T13:07:03;26.80;99.90
17565;DHT22;62994;52.126;5.596;2023-06-22T13:09:31;26.80;99.90
17565;DHT22;62994;52.126;5.596;2023-06-22T13:12:00;26.80;99.90
17565;DHT22;62994;52.126;5.596;2023-06-22T13:14:28;26.80;99.90
17565;DHT22;62994;52.126;5.596;2023-06-22T13:16:56;26.70;99.90
17565;DHT22;62994;52.126;5.596;2023-06-22T13:19:23;26.70;99.90
17565;DHT22;62994;52.126;5.596;2023-06-22T13:21:53;26.70;99.90
17565;DHT22;62994;52.126;5.596;2023-06-22T13:24:20;26.60;99.90
17565;DHT22;62994;52.126;5.596;2023-06-22T13:26:48;26.50;99.90
17565;DHT22;62994;52.126;5.596;2023-06-22T13:29:15;26.50;99.90
17565;DHT22;62994;52.126;5.596;2023-06-22T13:31:42;26.40;99.90
17565;DHT22;62994;52.126;5.596;2023-06-22T13:34:11;26.40;99.90
17565;DHT22;62994;52.126;5.596;2023-06-22T13:36:38;26.40;99.90
17565;DHT22;62994;52.126;5.596;2023-06-22T13:39:05;26.40;99.90
17565;DHT22;62994;52.126;5.596;2023-06-22T13:41:32;26.40;99.90
17565;DHT22;62994;52.126;5.596;2023-06-22T13:44:00;26.40;99.90
17565;DHT22;62994;52.126;5.596;2023-06-22T13:46:27;26.40;99.90
17565;DHT22;62994;52.126;5.596;2023-06-22T13:48:55;26.40;99.90
17565;DHT22;62994;52.126;5.596;2023-06-22T13:51:23;26.40;99.90
17565;DHT22;62994;52.126;5.596;2023-06-22T13:53:54;26.40;99.90
17565;DHT22;62994;52.126;5.596;2023-06-22T13:56:21;26.40;99.90
17565;DHT22;62994;52.126;5.596;2023-06-22T13:58:50;26.30;99.90
17565;DHT22;62994;52.126;5.596;2023-06-22T14:01:17;26.40;99.90
17565;DHT22;62994;52.126;5.596;2023-06-22T14:03:44;26.30;99.90
17565;DHT22;62994;52.126;5.596;2023-06-22T14:06:12;26.30;99.90
17565;DHT22;62994;52.126;5.596;2023-06-22T14:08:41;26.30;99.90
17565;DHT22;62994;52.126;5.596;2023-06-22T14:11:07;26.30;99.90
17565;DHT22;62994;52.126;5.596;2023-06-22T14:13:34;26.30;99.90
17565;DHT22;62994;52.126;5.596;2023-06-22T14:16:02;26.20;99.90
17565;DHT22;62994;52.126;5.596;2023-06-22T14:18:30;26.20;99.90
17565;DHT22;62994;52.126;5.596;2023-06-22T14:20:57;26.10;99.90
17565;DHT22;62994;52.126;5.596;2023-06-22T14:23:24;26.00;99.90
17565;DHT22;62994;52.126;5.596;2023-06-22T14:25:53;26.00;99.90
17565;DHT22;62994;52.126;5.596;2023-06-22T14:28:20;25.90;99.90
17565;DHT22;62994;52.126;5.596;2023-06-22T14:30:47;26.00;99.90
17565;DHT22;62994;52.126;5.596;2023-06-22T14:33:14;25.90;99.90
17565;DHT22;62994;52.126;5.596;2023-06-22T14:35:41;25.90;99.90
17565;DHT22;62994;52.126;5.596;2023-06-22T14:38:08;25.90;99.90
17565;DHT22;62994;52.126;5.596;2023-06-22T14:40:35;25.90;99.90
17565;DHT22;62994;52.126;5.596;2023-06-22T14:43:03;25.80;99.90
17565;DHT22;62994;52.126;5.596;2023-06-22T14:45:30;25.80;99.90
17565;DHT22;62994;52.126;5.596;2023-06-22T14:47:57;25.80;99.90
17565;DHT22;62994;52.126;5.596;2023-06-22T14:50:24;25.80;99.90
17565;DHT22;62994;52.126;5.596;2023-06-22T14:52:51;25.80;99.90
17565;DHT22;62994;52.126;5.596;2023-06-22T14:55:18;25.70;99.90
17565;DHT22;62994;52.126;5.596;2023-06-22T14:57:46;25.70;99.90
17565;DHT22;62994;52.126;5.596;2023-06-22T15:00:15;25.70;99.90
17565;DHT22;62994;52.126;5.596;2023-06-22T15:02:42;25.60;99.90
17565;DHT22;62994;52.126;5.596;2023-06-22T15:05:09;25.60;99.90
17565;DHT22;62994;52.126;5.596;2023-06-22T15:07:36;25.40;99.90
17565;DHT22;62994;52.126;5.596;2023-06-22T15:10:03;25.40;99.90
17565;DHT22;62994;52.126;5.596;2023-06-22T15:12:31;25.30;99.90
17565;DHT22;62994;52.126;5.596;2023-06-22T15:14:58;25.30;99.90
17565;DHT22;62994;52.126;5.596;2023-06-22T15:17:26;25.30;99.90
17565;DHT22;62994;52.126;5.596;2023-06-22T15:19:54;25.10;99.90
17565;DHT22;62994;52.126;5.596;2023-06-22T15:22:22;25.00;99.90
17565;DHT22;62994;52.126;5.596;2023-06-22T15:24:49;25.00;99.90
17565;DHT22;62994;52.126;5.596;2023-06-22T15:27:18;25.00;99.90
17565;DHT22;62994;52.126;5.596;2023-06-22T15:29:46;24.90;99.90
17565;DHT22;62994;52.126;5.596;2023-06-22T15:32:13;24.80;99.90
17565;DHT22;62994;52.126;5.596;2023-06-22T15:34:41;24.70;99.90
17565;DHT22;62994;52.126;5.596;2023-06-22T15:37:08;24.60;99.90
17565;DHT22;62994;52.126;5.596;2023-06-22T15:39:35;24.50;99.90
17565;DHT22;62994;52.126;5.596;2023-06-22T15:42:02;24.50;99.90